CMA CGM La Boussole — A8FZ6 — position and weather

sailwx.info

Track history (hours):
 
Tides and Currents Weather Stations Pressure Air Temp Water Temp Dewpoint Dewpoint Depression Visibility Wind Speed Wind Dir Waves Ship Positions

CMA CGM La Boussole

Last reported at 2017-Jul-28 08:27 UTC. Time now 2017-Jul-28 08:42 UTC.
Position N 35°47' W 007°11'.

Length 210.1 m; beam 30.2 m; draft 11.5 m.

Type: Ship (hazmat cat A). MMSI: 636017045.

Date/timePositionNaut miles runAvg speedWind from/ knotsBaromVisibWave heightAir tempDewpointWater temp
2017-Jul-28 08:27N 35°47' W 007°11'612.0
2017-Jul-28 07:59N 35°46' W 007°18'612.0
2017-Jul-28 07:30N 35°45' W 007°25'611.8
2017-Jul-28 07:00N 35°45' W 007°32'611.6
2017-Jul-28 06:30N 35°44' W 007°39'612.0
2017-Jul-28 06:00N 35°43' W 007°46'612.3
2017-Jul-28 05:30N 35°42' W 007°54'612.0
2017-Jul-28 05:00N 35°41' W 008°01'611.9
2017-Jul-28 04:30N 35°40' W 008°08'612.0
2017-Jul-28 04:00N 35°39' W 008°15'611.9
2017-Jul-28 03:30N 35°38' W 008°23'612.0
2017-Jul-28 03:00N 35°38' W 008°30'611.9
2017-Jul-28 02:31N 35°37' W 008°37'611.6
2017-Jul-28 02:00N 35°36' W 008°44'611.5
2017-Jul-28 01:29N 35°35' W 008°51'611.5
2017-Jul-28 00:57N 35°34' W 008°59'511.5
2017-Jul-28 00:30N 35°33' W 009°05'611.4
2017-Jul-27 23:59N 35°33' W 009°12'611.3
2017-Jul-27 23:30N 35°32' W 009°19'611.2
2017-Jul-27 23:00N 35°31' W 009°26'611.3
2017-Jul-27 22:30N 35°30' W 009°33'611.4
2017-Jul-27 22:00N 35°30' W 009°40'611.5
2017-Jul-27 21:30N 35°29' W 009°47'611.4
2017-Jul-27 21:00N 35°28' W 009°54'611.4
2017-Jul-27 20:30N 35°27' W 010°00'611.3
2017-Jul-27 20:00N 35°26' W 010°07'611.5
2017-Jul-27 19:31N 35°24' W 010°14'611.5
2017-Jul-27 19:00N 35°23' W 010°21'611.7
2017-Jul-27 18:30N 35°22' W 010°28'611.6
2017-Jul-27 18:00N 35°21' W 010°35'611.6
2017-Jul-27 17:30N 35°20' W 010°42'611.8
2017-Jul-27 17:00N 35°19' W 010°49'612.0
2017-Jul-27 16:30N 35°18' W 010°56'611.9
2017-Jul-27 16:00N 35°17' W 011°04'612.2
2017-Jul-27 15:30N 35°16' W 011°11'612.8
2017-Jul-27 15:01N 35°15' W 011°19'1312.8
2017-Jul-27 14:00N 35°12' W 011°34'613.0
2017-Jul-27 13:30N 35°11' W 011°42'612.7
2017-Jul-27 13:00N 35°10' W 011°49'612.4
2017-Jul-27 12:30N 35°08' W 011°57'612.5
2017-Jul-27 12:00N 35°07' W 012°04'612.6
2017-Jul-27 11:30N 35°06' W 012°12'612.7
2017-Jul-27 11:00N 35°05' W 012°20'612.8
2017-Jul-27 10:30N 35°04' W 012°27'612.8
2017-Jul-27 10:01N 35°03' W 012°35'612.4
2017-Jul-27 09:30N 35°01' W 012°42'612.4
2017-Jul-27 09:00N 35°00' W 012°50'612.3
2017-Jul-27 08:31N 34°59' W 012°57'612.6
2017-Jul-27 08:00N 34°58' W 013°05'612.7
2017-Jul-27 07:30N 34°57' W 013°12'612.5
2017-Jul-27 07:00N 34°55' W 013°20'612.3
2017-Jul-27 06:30N 34°54' W 013°27'612.5
2017-Jul-27 06:00N 34°53' W 013°34'612.6
2017-Jul-27 05:30N 34°52' W 013°42'713.3
2017-Jul-27 05:00N 34°51' W 013°50'815.8
2017-Jul-27 04:30N 34°49' W 013°59'816.0
2017-Jul-27 04:00N 34°48' W 014°09'815.7
2017-Jul-27 03:30N 34°46' W 014°18'816.0
2017-Jul-27 03:00N 34°45' W 014°28'816.0
2017-Jul-27 02:30N 34°43' W 014°37'815.9
2017-Jul-27 02:00N 34°42' W 014°47'816.0
2017-Jul-27 01:30N 34°40' W 014°56'816.1
2017-Jul-27 00:59N 34°38' W 015°06'815.8
2017-Jul-27 00:30N 34°36' W 015°15'916.1
2017-Jul-26 23:57N 34°34' W 015°26'716.3
2017-Jul-26 23:30N 34°32' W 015°35'1215.9
2017-Jul-26 22:46N 34°29' W 015°48'416.4
2017-Jul-26 22:30N 34°28' W 015°53'8415.8
2017-Jul-26 17:11N 34°09' W 017°33'  
2017-Jul-20 02:39N 16°09' W 061°30'1 7.0
2017-Jul-20 02:30N 16°09' W 061°31'4 8.8
2017-Jul-20 02:00N 16°14' W 061°32'1 1.0
2017-Jul-20 01:29N 16°14' W 061°33'0 0.0
2017-Jul-20 00:59N 16°14' W 061°33'0 0.0
2017-Jul-20 00:29N 16°14' W 061°33'0 0.0
2017-Jul-19 23:56N 16°14' W 061°33'0 0.0
2017-Jul-19 23:26N 16°14' W 061°33'0 0.0
2017-Jul-19 22:59N 16°14' W 061°33'0 0.0
2017-Jul-19 22:23N 16°14' W 061°33'0 0.0
2017-Jul-19 21:59N 16°14' W 061°33'0 0.0
2017-Jul-19 21:29N 16°14' W 061°33'0 0.0
2017-Jul-19 20:53N 16°14' W 061°33'0 0.0
2017-Jul-19 20:23N 16°14' W 061°33'0 0.0
2017-Jul-19 19:59N 16°14' W 061°33'0 0.0
2017-Jul-19 19:29N 16°14' W 061°33'0 0.0
2017-Jul-19 18:56N 16°14' W 061°33'0 0.0
2017-Jul-19 18:29N 16°14' W 061°33'0 0.0
2017-Jul-19 17:59N 16°14' W 061°33'0 0.0
2017-Jul-19 17:29N 16°14' W 061°33'0 0.0
2017-Jul-19 16:59N 16°14' W 061°33'0 0.0
2017-Jul-19 16:30N 16°14' W 061°33'0 0.0
2017-Jul-19 15:59N 16°14' W 061°33'0 0.0
2017-Jul-19 15:29N 16°14' W 061°33'0 0.0
2017-Jul-19 14:59N 16°14' W 061°33'0 0.0
2017-Jul-19 14:29N 16°14' W 061°33'0 0.0
2017-Jul-19 13:59N 16°14' W 061°33'0 0.0
2017-Jul-19 13:29N 16°14' W 061°33'0 0.0
2017-Jul-19 12:59N 16°14' W 061°33'0 0.0
2017-Jul-19 12:17N 16°14' W 061°33'0 0.0
2017-Jul-19 11:59N 16°14' W 061°33'0 0.0
2017-Jul-19 11:26N 16°14' W 061°33'0 0.0
2017-Jul-19 10:56N 16°14' W 061°33'0 0.0
2017-Jul-19 10:29N 16°14' W 061°33'0 0.0
2017-Jul-19 09:56N 16°14' W 061°33'0 0.6
2017-Jul-19 09:30N 16°14' W 061°32'3 5.7
2017-Jul-19 09:00N 16°11' W 061°33'3 6.2
2017-Jul-19 08:30N 16°09' W 061°31'0 0.6
2017-Jul-19 08:00N 16°09' W 061°30'2 4.0
2017-Jul-19 07:30N 16°07' W 061°30'4 7.0
2017-Jul-19 07:00N 16°03' W 061°31'3 6.3
2017-Jul-19 06:31N 16°00' W 061°32'15 9.9
2017-Jul-19 04:59N 15°53' W 061°46'  
Track history (hours):
 
Tides and Currents Weather Stations Pressure Air Temp Water Temp Dewpoint Dewpoint Depression Visibility Wind Speed Wind Dir Waves Ship Positions

CMA CGM La Boussole

Last reported at 2017-Jul-28 08:27 UTC. Time now 2017-Jul-28 08:42 UTC.
Position N 35°47' W 007°11'.

Length 210.1 m; beam 30.2 m; draft 11.5 m.

Type: Ship (hazmat cat A). MMSI: 636017045.

Date/timePositionNaut miles runAvg speedWind from/ knotsBaromVisibWave heightAir tempDewpointWater temp
2017-Jul-28 08:27N 35°47' W 007°11'612.0
2017-Jul-28 07:59N 35°46' W 007°18'612.0
2017-Jul-28 07:30N 35°45' W 007°25'611.8
2017-Jul-28 07:00N 35°45' W 007°32'611.6
2017-Jul-28 06:30N 35°44' W 007°39'612.0
2017-Jul-28 06:00N 35°43' W 007°46'612.3
2017-Jul-28 05:30N 35°42' W 007°54'612.0
2017-Jul-28 05:00N 35°41' W 008°01'611.9
2017-Jul-28 04:30N 35°40' W 008°08'612.0
2017-Jul-28 04:00N 35°39' W 008°15'611.9
2017-Jul-28 03:30N 35°38' W 008°23'612.0
2017-Jul-28 03:00N 35°38' W 008°30'611.9
2017-Jul-28 02:31N 35°37' W 008°37'611.6
2017-Jul-28 02:00N 35°36' W 008°44'611.5
2017-Jul-28 01:29N 35°35' W 008°51'611.5
2017-Jul-28 00:57N 35°34' W 008°59'511.5
2017-Jul-28 00:30N 35°33' W 009°05'611.4
2017-Jul-27 23:59N 35°33' W 009°12'611.3
2017-Jul-27 23:30N 35°32' W 009°19'611.2
2017-Jul-27 23:00N 35°31' W 009°26'611.3
2017-Jul-27 22:30N 35°30' W 009°33'611.4
2017-Jul-27 22:00N 35°30' W 009°40'611.5
2017-Jul-27 21:30N 35°29' W 009°47'611.4
2017-Jul-27 21:00N 35°28' W 009°54'611.4
2017-Jul-27 20:30N 35°27' W 010°00'611.3
2017-Jul-27 20:00N 35°26' W 010°07'611.5
2017-Jul-27 19:31N 35°24' W 010°14'611.5
2017-Jul-27 19:00N 35°23' W 010°21'611.7
2017-Jul-27 18:30N 35°22' W 010°28'611.6
2017-Jul-27 18:00N 35°21' W 010°35'611.6
2017-Jul-27 17:30N 35°20' W 010°42'611.8
2017-Jul-27 17:00N 35°19' W 010°49'612.0
2017-Jul-27 16:30N 35°18' W 010°56'611.9
2017-Jul-27 16:00N 35°17' W 011°04'612.2
2017-Jul-27 15:30N 35°16' W 011°11'612.8
2017-Jul-27 15:01N 35°15' W 011°19'1312.8
2017-Jul-27 14:00N 35°12' W 011°34'613.0
2017-Jul-27 13:30N 35°11' W 011°42'612.7
2017-Jul-27 13:00N 35°10' W 011°49'612.4
2017-Jul-27 12:30N 35°08' W 011°57'612.5
2017-Jul-27 12:00N 35°07' W 012°04'612.6
2017-Jul-27 11:30N 35°06' W 012°12'612.7
2017-Jul-27 11:00N 35°05' W 012°20'612.8
2017-Jul-27 10:30N 35°04' W 012°27'612.8
2017-Jul-27 10:01N 35°03' W 012°35'612.4
2017-Jul-27 09:30N 35°01' W 012°42'612.4
2017-Jul-27 09:00N 35°00' W 012°50'612.3
2017-Jul-27 08:31N 34°59' W 012°57'612.6
2017-Jul-27 08:00N 34°58' W 013°05'612.7
2017-Jul-27 07:30N 34°57' W 013°12'612.5
2017-Jul-27 07:00N 34°55' W 013°20'612.3
2017-Jul-27 06:30N 34°54' W 013°27'612.5
2017-Jul-27 06:00N 34°53' W 013°34'612.6
2017-Jul-27 05:30N 34°52' W 013°42'713.3
2017-Jul-27 05:00N 34°51' W 013°50'815.8
2017-Jul-27 04:30N 34°49' W 013°59'816.0
2017-Jul-27 04:00N 34°48' W 014°09'815.7
2017-Jul-27 03:30N 34°46' W 014°18'816.0
2017-Jul-27 03:00N 34°45' W 014°28'816.0
2017-Jul-27 02:30N 34°43' W 014°37'815.9
2017-Jul-27 02:00N 34°42' W 014°47'816.0
2017-Jul-27 01:30N 34°40' W 014°56'816.1
2017-Jul-27 00:59N 34°38' W 015°06'815.8
2017-Jul-27 00:30N 34°36' W 015°15'916.1
2017-Jul-26 23:57N 34°34' W 015°26'716.3
2017-Jul-26 23:30N 34°32' W 015°35'1215.9
2017-Jul-26 22:46N 34°29' W 015°48'416.4
2017-Jul-26 22:30N 34°28' W 015°53'8415.8
2017-Jul-26 17:11N 34°09' W 017°33'  
2017-Jul-20 02:39N 16°09' W 061°30'1 7.0
2017-Jul-20 02:30N 16°09' W 061°31'4 8.8
2017-Jul-20 02:00N 16°14' W 061°32'1 1.0
2017-Jul-20 01:29N 16°14' W 061°33'0 0.0
2017-Jul-20 00:59N 16°14' W 061°33'0 0.0
2017-Jul-20 00:29N 16°14' W 061°33'0 0.0
2017-Jul-19 23:56N 16°14' W 061°33'0 0.0
2017-Jul-19 23:26N 16°14' W 061°33'0 0.0
2017-Jul-19 22:59N 16°14' W 061°33'0 0.0
2017-Jul-19 22:23N 16°14' W 061°33'0 0.0
2017-Jul-19 21:59N 16°14' W 061°33'0 0.0
2017-Jul-19 21:29N 16°14' W 061°33'0 0.0
2017-Jul-19 20:53N 16°14' W 061°33'0 0.0
2017-Jul-19 20:23N 16°14' W 061°33'0 0.0
2017-Jul-19 19:59N 16°14' W 061°33'0 0.0
2017-Jul-19 19:29N 16°14' W 061°33'0 0.0
2017-Jul-19 18:56N 16°14' W 061°33'0 0.0
2017-Jul-19 18:29N 16°14' W 061°33'0 0.0
2017-Jul-19 17:59N 16°14' W 061°33'0 0.0
2017-Jul-19 17:29N 16°14' W 061°33'0 0.0
2017-Jul-19 16:59N 16°14' W 061°33'0 0.0
2017-Jul-19 16:30N 16°14' W 061°33'0 0.0
2017-Jul-19 15:59N 16°14' W 061°33'0 0.0
2017-Jul-19 15:29N 16°14' W 061°33'0 0.0
2017-Jul-19 14:59N 16°14' W 061°33'0 0.0
2017-Jul-19 14:29N 16°14' W 061°33'0 0.0
2017-Jul-19 13:59N 16°14' W 061°33'0 0.0
2017-Jul-19 13:29N 16°14' W 061°33'0 0.0
2017-Jul-19 12:59N 16°14' W 061°33'0 0.0
2017-Jul-19 12:17N 16°14' W 061°33'0 0.0
2017-Jul-19 11:59N 16°14' W 061°33'0 0.0
2017-Jul-19 11:26N 16°14' W 061°33'0 0.0
2017-Jul-19 10:56N 16°14' W 061°33'0 0.0
2017-Jul-19 10:29N 16°14' W 061°33'0 0.0
2017-Jul-19 09:56N 16°14' W 061°33'0 0.6
2017-Jul-19 09:30N 16°14' W 061°32'3 5.7
2017-Jul-19 09:00N 16°11' W 061°33'3 6.2
2017-Jul-19 08:30N 16°09' W 061°31'0 0.6
2017-Jul-19 08:00N 16°09' W 061°30'2 4.0
2017-Jul-19 07:30N 16°07' W 061°30'4 7.0
2017-Jul-19 07:00N 16°03' W 061°31'3 6.3
2017-Jul-19 06:31N 16°00' W 061°32'15 9.9
2017-Jul-19 04:59N 15°53' W 061°46'  

Dump ship's entire track history